sensor_id;sensor_type;location;lat;lon;timestamp;temperature;humidity
1411;DHT22;700;51.906;8.404;2024-02-16T00:01:49;13.00;99.90
1411;DHT22;700;51.906;8.404;2024-02-16T00:06:50;13.00;99.90
1411;DHT22;700;51.906;8.404;2024-02-16T00:11:51;13.00;99.90
1411;DHT22;700;51.906;8.404;2024-02-16T00:16:52;13.00;99.90
1411;DHT22;700;51.906;8.404;2024-02-16T00:21:55;13.20;99.90
1411;DHT22;700;51.906;8.404;2024-02-16T00:26:59;13.00;99.90
1411;DHT22;700;51.906;8.404;2024-02-16T00:31:59;13.00;99.90
1411;DHT22;700;51.906;8.404;2024-02-16T00:37:00;13.10;99.90
1411;DHT22;700;51.906;8.404;2024-02-16T00:42:04;13.20;99.90
1411;DHT22;700;51.906;8.404;2024-02-16T00:47:05;13.10;99.90
1411;DHT22;700;51.906;8.404;2024-02-16T00:52:06;12.90;99.90
1411;DHT22;700;51.906;8.404;2024-02-16T00:57:07;13.10;99.90
1411;DHT22;700;51.906;8.404;2024-02-16T01:02:07;13.10;99.90
1411;DHT22;700;51.906;8.404;2024-02-16T01:07:12;13.30;99.90
1411;DHT22;700;51.906;8.404;2024-02-16T01:12:15;13.50;99.90
1411;DHT22;700;51.906;8.404;2024-02-16T01:17:15;13.40;99.90
1411;DHT22;700;51.906;8.404;2024-02-16T01:22:18;13.30;99.90
1411;DHT22;700;51.906;8.404;2024-02-16T01:27:19;13.20;99.90
1411;DHT22;700;51.906;8.404;2024-02-16T01:32:21;13.20;99.90
1411;DHT22;700;51.906;8.404;2024-02-16T01:37:24;13.20;99.90
1411;DHT22;700;51.906;8.404;2024-02-16T01:42:25;13.10;99.90
1411;DHT22;700;51.906;8.404;2024-02-16T01:47:26;13.20;99.90
1411;DHT22;700;51.906;8.404;2024-02-16T01:52:31;13.30;99.90
1411;DHT22;700;51.906;8.404;2024-02-16T01:57:34;13.00;99.90
1411;DHT22;700;51.906;8.404;2024-02-16T02:02:38;13.30;99.90
1411;DHT22;700;51.906;8.404;2024-02-16T02:07:41;13.30;99.90
1411;DHT22;700;51.906;8.404;2024-02-16T02:12:42;13.20;99.90
1411;DHT22;700;51.906;8.404;2024-02-16T02:17:50;13.10;99.90
1411;DHT22;700;51.906;8.404;2024-02-16T02:22:51;13.20;99.90
1411;DHT22;700;51.906;8.404;2024-02-16T02:27:51;13.20;99.90
1411;DHT22;700;51.906;8.404;2024-02-16T02:32:54;12.90;99.90
1411;DHT22;700;51.906;8.404;2024-02-16T02:37:55;13.00;99.90
1411;DHT22;700;51.906;8.404;2024-02-16T02:42:55;13.00;99.90
1411;DHT22;700;51.906;8.404;2024-02-16T02:47:58;12.90;99.90
1411;DHT22;700;51.906;8.404;2024-02-16T02:52:59;13.00;99.90
1411;DHT22;700;51.906;8.404;2024-02-16T02:58:00;13.00;99.90
1411;DHT22;700;51.906;8.404;2024-02-16T03:03:03;13.00;99.90
1411;DHT22;700;51.906;8.404;2024-02-16T03:08:04;13.10;99.90
1411;DHT22;700;51.906;8.404;2024-02-16T03:13:10;13.10;99.90
1411;DHT22;700;51.906;8.404;2024-02-16T03:18:13;13.10;99.90
1411;DHT22;700;51.906;8.404;2024-02-16T03:23:16;13.30;99.90
1411;DHT22;700;51.906;8.404;2024-02-16T03:28:19;13.30;99.90
1411;DHT22;700;51.906;8.404;2024-02-16T03:33:20;13.30;99.90
1411;DHT22;700;51.906;8.404;2024-02-16T03:38:24;13.20;99.90
1411;DHT22;700;51.906;8.404;2024-02-16T03:43:25;13.10;99.90
1411;DHT22;700;51.906;8.404;2024-02-16T03:48:29;13.10;99.90
1411;DHT22;700;51.906;8.404;2024-02-16T03:53:32;13.10;99.90
1411;DHT22;700;51.906;8.404;2024-02-16T03:58:35;13.10;99.90
1411;DHT22;700;51.906;8.404;2024-02-16T04:03:36;13.30;99.90
1411;DHT22;700;51.906;8.404;2024-02-16T04:08:36;13.40;99.90
1411;DHT22;700;51.906;8.404;2024-02-16T04:13:44;13.20;99.90
1411;DHT22;700;51.906;8.404;2024-02-16T04:18:44;13.20;99.90
1411;DHT22;700;51.906;8.404;2024-02-16T04:23:48;13.50;99.90
1411;DHT22;700;51.906;8.404;2024-02-16T04:28:54;13.60;99.90
1411;DHT22;700;51.906;8.404;2024-02-16T04:33:54;13.40;99.90
1411;DHT22;700;51.906;8.404;2024-02-16T04:38:55;13.40;99.90
1411;DHT22;700;51.906;8.404;2024-02-16T04:43:58;13.30;99.90
1411;DHT22;700;51.906;8.404;2024-02-16T04:48:58;13.30;99.90
1411;DHT22;700;51.906;8.404;2024-02-16T04:53:59;13.50;99.90
1411;DHT22;700;51.906;8.404;2024-02-16T04:59:02;13.70;99.90
1411;DHT22;700;51.906;8.404;2024-02-16T05:04:07;13.30;99.90
1411;DHT22;700;51.906;8.404;2024-02-16T05:09:10;13.00;99.90
1411;DHT22;700;51.906;8.404;2024-02-16T05:14:14;13.10;99.90
1411;DHT22;700;51.906;8.404;2024-02-16T05:19:14;13.30;99.90
1411;DHT22;700;51.906;8.404;2024-02-16T05:24:15;13.40;99.90
1411;DHT22;700;51.906;8.404;2024-02-16T05:29:15;13.70;99.90
1411;DHT22;700;51.906;8.404;2024-02-16T05:34:16;13.40;99.90
1411;DHT22;700;51.906;8.404;2024-02-16T05:39:16;13.30;99.90
1411;DHT22;700;51.906;8.404;2024-02-16T05:44:20;13.60;99.90
1411;DHT22;700;51.906;8.404;2024-02-16T05:49:21;13.70;99.90
1411;DHT22;700;51.906;8.404;2024-02-16T05:54:21;13.90;99.90
1411;DHT22;700;51.906;8.404;2024-02-16T05:59:23;13.90;99.90
1411;DHT22;700;51.906;8.404;2024-02-16T06:04:27;13.80;99.90
1411;DHT22;700;51.906;8.404;2024-02-16T06:09:28;13.70;99.90
1411;DHT22;700;51.906;8.404;2024-02-16T06:14:34;13.70;99.90
1411;DHT22;700;51.906;8.404;2024-02-16T06:19:37;13.80;99.90
1411;DHT22;700;51.906;8.404;2024-02-16T06:24:38;13.70;99.90
1411;DHT22;700;51.906;8.404;2024-02-16T06:29:39;13.80;99.90
1411;DHT22;700;51.906;8.404;2024-02-16T06:34:42;14.00;99.90
1411;DHT22;700;51.906;8.404;2024-02-16T06:39:43;14.00;99.90
1411;DHT22;700;51.906;8.404;2024-02-16T06:44:43;14.20;99.90
1411;DHT22;700;51.906;8.404;2024-02-16T06:49:46;14.20;99.90
1411;DHT22;700;51.906;8.404;2024-02-16T06:54:47;14.20;99.90
1411;DHT22;700;51.906;8.404;2024-02-16T06:59:47;14.00;99.90
1411;DHT22;700;51.906;8.404;2024-02-16T07:04:48;14.30;99.90
1411;DHT22;700;51.906;8.404;2024-02-16T07:09:51;14.40;99.90
1411;DHT22;700;51.906;8.404;2024-02-16T07:14:56;14.30;99.90
1411;DHT22;700;51.906;8.404;2024-02-16T07:19:57;14.70;99.90
1411;DHT22;700;51.906;8.404;2024-02-16T07:25:04;14.80;99.90
1411;DHT22;700;51.906;8.404;2024-02-16T07:30:09;14.80;99.90
1411;DHT22;700;51.906;8.404;2024-02-16T07:35:14;14.40;99.90
1411;DHT22;700;51.906;8.404;2024-02-16T07:40:14;14.90;99.90
1411;DHT22;700;51.906;8.404;2024-02-16T07:45:15;14.40;99.90
1411;DHT22;700;51.906;8.404;2024-02-16T07:50:19;14.70;99.90
1411;DHT22;700;51.906;8.404;2024-02-16T07:55:22;14.50;99.90
1411;DHT22;700;51.906;8.404;2024-02-16T08:00:27;14.90;99.90
1411;DHT22;700;51.906;8.404;2024-02-16T08:05:28;15.30;99.90
1411;DHT22;700;51.906;8.404;2024-02-16T08:10:34;15.40;99.90
1411;DHT22;700;51.906;8.404;2024-02-16T08:15:36;15.50;99.90
1411;DHT22;700;51.906;8.404;2024-02-16T08:20:37;15.50;99.90
1411;DHT22;700;51.906;8.404;2024-02-16T08:25:40;15.30;99.90
1411;DHT22;700;51.906;8.404;2024-02-16T08:30:41;15.60;99.90
1411;DHT22;700;51.906;8.404;2024-02-16T08:35:44;15.80;99.90
1411;DHT22;700;51.906;8.404;2024-02-16T08:40:45;15.80;99.90
1411;DHT22;700;51.906;8.404;2024-02-16T08:45:47;16.00;99.90
1411;DHT22;700;51.906;8.404;2024-02-16T08:50:48;16.30;99.90
1411;DHT22;700;51.906;8.404;2024-02-16T08:55:51;16.10;99.90
1411;DHT22;700;51.906;8.404;2024-02-16T09:00:51;16.00;99.90
1411;DHT22;700;51.906;8.404;2024-02-16T09:05:54;16.10;99.90
1411;DHT22;700;51.906;8.404;2024-02-16T09:10:55;16.30;99.90
1411;DHT22;700;51.906;8.404;2024-02-16T09:15:59;16.40;99.90
1411;DHT22;700;51.906;8.404;2024-02-16T09:21:02;16.60;99.90
1411;DHT22;700;51.906;8.404;2024-02-16T09:26:05;16.80;99.90
1411;DHT22;700;51.906;8.404;2024-02-16T09:31:06;17.00;99.90
1411;DHT22;700;51.906;8.404;2024-02-16T09:36:09;17.40;99.90
1411;DHT22;700;51.906;8.404;2024-02-16T09:41:13;17.50;99.90
1411;DHT22;700;51.906;8.404;2024-02-16T09:46:16;17.40;99.90
1411;DHT22;700;51.906;8.404;2024-02-16T09:51:18;17.20;99.90
1411;DHT22;700;51.906;8.404;2024-02-16T09:56:18;17.00;99.90
1411;DHT22;700;51.906;8.404;2024-02-16T10:01:21;17.00;99.90
1411;DHT22;700;51.906;8.404;2024-02-16T10:06:24;17.20;99.90
1411;DHT22;700;51.906;8.404;2024-02-16T10:11:26;17.30;99.90
1411;DHT22;700;51.906;8.404;2024-02-16T10:16:30;18.40;99.90
1411;DHT22;700;51.906;8.404;2024-02-16T10:21:36;18.80;99.90
1411;DHT22;700;51.906;8.404;2024-02-16T10:26:37;19.40;99.90
1411;DHT22;700;51.906;8.404;2024-02-16T10:31:38;20.30;99.90
1411;DHT22;700;51.906;8.404;2024-02-16T10:36:39;20.40;99.90
1411;DHT22;700;51.906;8.404;2024-02-16T10:41:42;19.80;99.90
1411;DHT22;700;51.906;8.404;2024-02-16T10:46:44;19.60;99.90
1411;DHT22;700;51.906;8.404;2024-02-16T10:51:49;19.30;99.90
1411;DHT22;700;51.906;8.404;2024-02-16T10:56:55;19.00;99.90
1411;DHT22;700;51.906;8.404;2024-02-16T11:02:05;18.80;99.90
1411;DHT22;700;51.906;8.404;2024-02-16T11:07:20;18.40;99.90
1411;DHT22;700;51.906;8.404;2024-02-16T11:12:23;18.20;99.90
1411;DHT22;700;51.906;8.404;2024-02-16T11:17:28;17.70;99.90
1411;DHT22;700;51.906;8.404;2024-02-16T11:22:36;18.00;99.90
1411;DHT22;700;51.906;8.404;2024-02-16T11:27:40;18.00;99.90
1411;DHT22;700;51.906;8.404;2024-02-16T11:32:43;17.70;99.90
1411;DHT22;700;51.906;8.404;2024-02-16T11:37:48;17.90;99.90
1411;DHT22;700;51.906;8.404;2024-02-16T11:42:52;17.90;99.90
1411;DHT22;700;51.906;8.404;2024-02-16T11:48:05;17.80;99.90
1411;DHT22;700;51.906;8.404;2024-02-16T11:53:06;17.80;99.90
1411;DHT22;700;51.906;8.404;2024-02-16T11:58:12;17.80;99.90
1411;DHT22;700;51.906;8.404;2024-02-16T12:03:24;18.00;99.90
1411;DHT22;700;51.906;8.404;2024-02-16T12:08:32;17.70;99.90
1411;DHT22;700;51.906;8.404;2024-02-16T12:13:39;17.90;99.90
1411;DHT22;700;51.906;8.404;2024-02-16T12:18:42;18.00;99.90
1411;DHT22;700;51.906;8.404;2024-02-16T12:23:43;18.20;99.90
1411;DHT22;700;51.906;8.404;2024-02-16T12:28:44;17.90;99.90
1411;DHT22;700;51.906;8.404;2024-02-16T12:33:47;18.10;99.90
1411;DHT22;700;51.906;8.404;2024-02-16T12:38:48;18.00;99.90
1411;DHT22;700;51.906;8.404;2024-02-16T12:43:49;18.20;99.90
1411;DHT22;700;51.906;8.404;2024-02-16T12:48:54;18.40;99.90
1411;DHT22;700;51.906;8.404;2024-02-16T12:53:57;18.20;99.90
1411;DHT22;700;51.906;8.404;2024-02-16T12:59:02;18.40;99.90
1411;DHT22;700;51.906;8.404;2024-02-16T13:04:05;18.30;99.90
1411;DHT22;700;51.906;8.404;2024-02-16T13:09:08;18.10;99.90
1411;DHT22;700;51.906;8.404;2024-02-16T13:14:09;18.10;99.90
1411;DHT22;700;51.906;8.404;2024-02-16T13:19:09;17.90;99.90
1411;DHT22;700;51.906;8.404;2024-02-16T13:24:10;18.10;99.90
1411;DHT22;700;51.906;8.404;2024-02-16T13:29:11;17.90;99.90
1411;DHT22;700;51.906;8.404;2024-02-16T13:34:16;18.00;99.90
1411;DHT22;700;51.906;8.404;2024-02-16T13:39:17;17.90;99.90
1411;DHT22;700;51.906;8.404;2024-02-16T13:44:20;17.90;99.90
1411;DHT22;700;51.906;8.404;2024-02-16T13:49:21;18.00;99.90
1411;DHT22;700;51.906;8.404;2024-02-16T13:54:29;18.00;99.90
1411;DHT22;700;51.906;8.404;2024-02-16T13:59:30;17.80;99.90
1411;DHT22;700;51.906;8.404;2024-02-16T14:04:32;17.60;99.90
1411;DHT22;700;51.906;8.404;2024-02-16T14:09:32;17.50;99.90
1411;DHT22;700;51.906;8.404;2024-02-16T14:14:33;17.40;99.90
1411;DHT22;700;51.906;8.404;2024-02-16T14:19:33;17.40;99.90
1411;DHT22;700;51.906;8.404;2024-02-16T14:24:37;17.40;99.90
1411;DHT22;700;51.906;8.404;2024-02-16T14:29:38;17.50;99.90
1411;DHT22;700;51.906;8.404;2024-02-16T14:34:38;17.40;99.90
1411;DHT22;700;51.906;8.404;2024-02-16T14:39:39;17.20;99.90
1411;DHT22;700;51.906;8.404;2024-02-16T14:44:40;17.30;99.90
1411;DHT22;700;51.906;8.404;2024-02-16T14:49:40;17.10;99.90
1411;DHT22;700;51.906;8.404;2024-02-16T14:54:41;17.10;99.90
1411;DHT22;700;51.906;8.404;2024-02-16T14:59:42;17.20;99.90
1411;DHT22;700;51.906;8.404;2024-02-16T15:04:43;17.00;99.90
1411;DHT22;700;51.906;8.404;2024-02-16T15:09:44;17.10;99.90
1411;DHT22;700;51.906;8.404;2024-02-16T15:14:47;17.10;99.90
1411;DHT22;700;51.906;8.404;2024-02-16T15:19:48;17.10;99.90
1411;DHT22;700;51.906;8.404;2024-02-16T15:24:48;17.00;99.90
1411;DHT22;700;51.906;8.404;2024-02-16T15:29:51;16.80;99.90
1411;DHT22;700;51.906;8.404;2024-02-16T15:34:54;16.80;99.90
1411;DHT22;700;51.906;8.404;2024-02-16T15:39:55;16.50;99.90
1411;DHT22;700;51.906;8.404;2024-02-16T15:45:01;16.50;99.90
1411;DHT22;700;51.906;8.404;2024-02-16T15:50:05;16.20;99.90
1411;DHT22;700;51.906;8.404;2024-02-16T15:55:07;16.20;99.90
1411;DHT22;700;51.906;8.404;2024-02-16T16:00:10;16.10;99.90
1411;DHT22;700;51.906;8.404;2024-02-16T16:05:13;16.10;99.90
1411;DHT22;700;51.906;8.404;2024-02-16T16:10:19;16.20;99.90
1411;DHT22;700;51.906;8.404;2024-02-16T16:15:22;16.20;99.90
1411;DHT22;700;51.906;8.404;2024-02-16T16:20:23;16.20;99.90
1411;DHT22;700;51.906;8.404;2024-02-16T16:25:24;16.20;99.90
1411;DHT22;700;51.906;8.404;2024-02-16T16:30:24;16.10;99.90
1411;DHT22;700;51.906;8.404;2024-02-16T16:35:25;16.20;99.90
1411;DHT22;700;51.906;8.404;2024-02-16T16:40:26;16.00;99.90
1411;DHT22;700;51.906;8.404;2024-02-16T16:45:26;15.90;99.90
1411;DHT22;700;51.906;8.404;2024-02-16T16:50:29;16.00;99.90
1411;DHT22;700;51.906;8.404;2024-02-16T16:55:31;16.10;99.90
1411;DHT22;700;51.906;8.404;2024-02-16T17:00:36;16.10;99.90
1411;DHT22;700;51.906;8.404;2024-02-16T17:05:37;16.20;99.90
1411;DHT22;700;51.906;8.404;2024-02-16T17:10:40;16.10;99.90
1411;DHT22;700;51.906;8.404;2024-02-16T17:15:41;16.00;99.90
1411;DHT22;700;51.906;8.404;2024-02-16T17:20:41;16.20;99.90
1411;DHT22;700;51.906;8.404;2024-02-16T17:25:47;16.10;99.90
1411;DHT22;700;51.906;8.404;2024-02-16T17:30:51;16.20;99.90
1411;DHT22;700;51.906;8.404;2024-02-16T17:35:51;16.30;99.90
1411;DHT22;700;51.906;8.404;2024-02-16T17:40:52;16.20;99.90
1411;DHT22;700;51.906;8.404;2024-02-16T17:45:53;16.20;99.90
1411;DHT22;700;51.906;8.404;2024-02-16T17:50:54;16.10;99.90
1411;DHT22;700;51.906;8.404;2024-02-16T17:55:54;16.10;99.90
1411;DHT22;700;51.906;8.404;2024-02-16T18:01:00;16.00;99.90
1411;DHT22;700;51.906;8.404;2024-02-16T18:06:03;16.00;99.90
1411;DHT22;700;51.906;8.404;2024-02-16T18:11:04;16.00;99.90
1411;DHT22;700;51.906;8.404;2024-02-16T18:16:04;15.90;99.90
1411;DHT22;700;51.906;8.404;2024-02-16T18:21:08;15.90;99.90
1411;DHT22;700;51.906;8.404;2024-02-16T18:26:08;15.90;99.90
1411;DHT22;700;51.906;8.404;2024-02-16T18:31:12;15.60;99.90
1411;DHT22;700;51.906;8.404;2024-02-16T18:36:13;15.50;99.90
1411;DHT22;700;51.906;8.404;2024-02-16T18:41:16;15.40;99.90
1411;DHT22;700;51.906;8.404;2024-02-16T18:46:16;15.40;99.90
1411;DHT22;700;51.906;8.404;2024-02-16T18:51:17;15.20;99.90
1411;DHT22;700;51.906;8.404;2024-02-16T18:56:22;15.20;99.90
1411;DHT22;700;51.906;8.404;2024-02-16T19:01:23;15.00;99.90
1411;DHT22;700;51.906;8.404;2024-02-16T19:06:24;15.10;99.90
1411;DHT22;700;51.906;8.404;2024-02-16T19:11:27;15.10;99.90
1411;DHT22;700;51.906;8.404;2024-02-16T19:16:28;15.10;99.90
1411;DHT22;700;51.906;8.404;2024-02-16T19:21:29;15.10;99.90
1411;DHT22;700;51.906;8.404;2024-02-16T19:26:29;15.10;99.90
1411;DHT22;700;51.906;8.404;2024-02-16T19:31:31;15.20;99.90
1411;DHT22;700;51.906;8.404;2024-02-16T19:36:36;15.10;99.90
1411;DHT22;700;51.906;8.404;2024-02-16T19:41:44;15.10;99.90
1411;DHT22;700;51.906;8.404;2024-02-16T19:46:45;15.20;99.90
1411;DHT22;700;51.906;8.404;2024-02-16T19:51:46;15.30;99.90
1411;DHT22;700;51.906;8.404;2024-02-16T19:56:51;15.40;99.90
1411;DHT22;700;51.906;8.404;2024-02-16T20:01:54;15.40;99.90
1411;DHT22;700;51.906;8.404;2024-02-16T20:06:54;15.40;99.90
1411;DHT22;700;51.906;8.404;2024-02-16T20:11:55;15.40;99.90
1411;DHT22;700;51.906;8.404;2024-02-16T20:16:58;15.30;99.90
1411;DHT22;700;51.906;8.404;2024-02-16T20:21:59;15.40;99.90
1411;DHT22;700;51.906;8.404;2024-02-16T20:27:02;15.30;99.90
1411;DHT22;700;51.906;8.404;2024-02-16T20:32:04;15.20;99.90
1411;DHT22;700;51.906;8.404;2024-02-16T20:37:05;15.20;99.90
1411;DHT22;700;51.906;8.404;2024-02-16T20:42:06;15.10;99.90
1411;DHT22;700;51.906;8.404;2024-02-16T20:47:07;15.10;99.90
1411;DHT22;700;51.906;8.404;2024-02-16T20:52:08;15.10;99.90
1411;DHT22;700;51.906;8.404;2024-02-16T20:57:09;15.10;99.90
1411;DHT22;700;51.906;8.404;2024-02-16T21:02:09;15.10;99.90
1411;DHT22;700;51.906;8.404;2024-02-16T21:07:10;15.00;99.90
1411;DHT22;700;51.906;8.404;2024-02-16T21:12:10;15.00;99.90
1411;DHT22;700;51.906;8.404;2024-02-16T21:17:11;14.90;99.90
1411;DHT22;700;51.906;8.404;2024-02-16T21:22:13;14.90;99.90
1411;DHT22;700;51.906;8.404;2024-02-16T21:27:13;14.80;99.90
1411;DHT22;700;51.906;8.404;2024-02-16T21:32:14;14.50;99.90
1411;DHT22;700;51.906;8.404;2024-02-16T21:37:15;14.50;99.90
1411;DHT22;700;51.906;8.404;2024-02-16T21:42:17;14.60;99.90
1411;DHT22;700;51.906;8.404;2024-02-16T21:47:18;14.60;99.90
1411;DHT22;700;51.906;8.404;2024-02-16T21:52:19;14.50;99.90
1411;DHT22;700;51.906;8.404;2024-02-16T21:57:19;14.30;99.90
1411;DHT22;700;51.906;8.404;2024-02-16T22:02:22;14.30;99.90
1411;DHT22;700;51.906;8.404;2024-02-16T22:07:22;14.40;99.90
1411;DHT22;700;51.906;8.404;2024-02-16T22:12:25;14.40;99.90
1411;DHT22;700;51.906;8.404;2024-02-16T22:17:28;14.40;99.90
1411;DHT22;700;51.906;8.404;2024-02-16T22:22:29;14.30;99.90
1411;DHT22;700;51.906;8.404;2024-02-16T22:27:29;14.20;99.90
1411;DHT22;700;51.906;8.404;2024-02-16T22:32:30;14.10;99.90
1411;DHT22;700;51.906;8.404;2024-02-16T22:37:31;14.10;99.90
1411;DHT22;700;51.906;8.404;2024-02-16T22:42:31;14.20;99.90
1411;DHT22;700;51.906;8.404;2024-02-16T22:47:32;14.20;99.90
1411;DHT22;700;51.906;8.404;2024-02-16T22:52:37;14.30;99.90
1411;DHT22;700;51.906;8.404;2024-02-16T22:57:38;14.10;99.90
1411;DHT22;700;51.906;8.404;2024-02-16T23:02:39;14.20;99.90
1411;DHT22;700;51.906;8.404;2024-02-16T23:07:40;14.10;99.90
1411;DHT22;700;51.906;8.404;2024-02-16T23:12:46;14.10;99.90
1411;DHT22;700;51.906;8.404;2024-02-16T23:17:46;14.10;99.90
1411;DHT22;700;51.906;8.404;2024-02-16T23:22:57;14.10;99.90
1411;DHT22;700;51.906;8.404;2024-02-16T23:28:01;14.00;99.90
1411;DHT22;700;51.906;8.404;2024-02-16T23:33:02;14.00;99.90
1411;DHT22;700;51.906;8.404;2024-02-16T23:38:05;14.00;99.90
1411;DHT22;700;51.906;8.404;2024-02-16T23:43:09;14.00;99.90
1411;DHT22;700;51.906;8.404;2024-02-16T23:48:11;14.00;99.90
1411;DHT22;700;51.906;8.404;2024-02-16T23:53:14;14.10;99.90
1411;DHT22;700;51.906;8.404;2024-02-16T23:58:15;14.20;99.90
